sensor_id;sensor_type;location;lat;lon;timestamp;temperature;humidity
4433;DHT22;2229;48.708;9.706;2023-04-03T00:02:03;4.40;95.20
4433;DHT22;2229;48.708;9.706;2023-04-03T00:04:30;4.40;95.30
4433;DHT22;2229;48.708;9.706;2023-04-03T00:06:57;4.30;95.10
4433;DHT22;2229;48.708;9.706;2023-04-03T00:09:24;4.30;95.10
4433;DHT22;2229;48.708;9.706;2023-04-03T00:11:52;4.30;95.00
4433;DHT22;2229;48.708;9.706;2023-04-03T00:14:20;4.30;95.00
4433;DHT22;2229;48.708;9.706;2023-04-03T00:16:49;4.30;95.10
4433;DHT22;2229;48.708;9.706;2023-04-03T00:19:16;4.30;95.10
4433;DHT22;2229;48.708;9.706;2023-04-03T00:21:43;4.30;95.10
4433;DHT22;2229;48.708;9.706;2023-04-03T00:24:11;4.30;95.10
4433;DHT22;2229;48.708;9.706;2023-04-03T00:26:38;4.30;95.10
4433;DHT22;2229;48.708;9.706;2023-04-03T00:29:05;4.30;95.10
4433;DHT22;2229;48.708;9.706;2023-04-03T00:31:32;4.30;95.00
4433;DHT22;2229;48.708;9.706;2023-04-03T00:34:01;4.30;95.10
4433;DHT22;2229;48.708;9.706;2023-04-03T00:36:28;4.30;95.10
4433;DHT22;2229;48.708;9.706;2023-04-03T00:38:56;4.40;95.20
4433;DHT22;2229;48.708;9.706;2023-04-03T00:41:23;4.40;95.10
4433;DHT22;2229;48.708;9.706;2023-04-03T00:43:51;4.40;95.10
4433;DHT22;2229;48.708;9.706;2023-04-03T00:46:18;4.40;94.80
4433;DHT22;2229;48.708;9.706;2023-04-03T00:48:48;4.40;94.70
4433;DHT22;2229;48.708;9.706;2023-04-03T00:51:21;4.40;94.60
4433;DHT22;2229;48.708;9.706;2023-04-03T00:53:53;4.40;94.60
4433;DHT22;2229;48.708;9.706;2023-04-03T00:56:25;4.40;94.60
4433;DHT22;2229;48.708;9.706;2023-04-03T00:58:56;4.40;94.40
4433;DHT22;2229;48.708;9.706;2023-04-03T01:01:27;4.40;94.30
4433;DHT22;2229;48.708;9.706;2023-04-03T01:03:54;4.40;94.20
4433;DHT22;2229;48.708;9.706;2023-04-03T01:06:27;4.50;94.30
4433;DHT22;2229;48.708;9.706;2023-04-03T01:08:59;4.50;94.40
4433;DHT22;2229;48.708;9.706;2023-04-03T01:11:27;4.50;94.40
4433;DHT22;2229;48.708;9.706;2023-04-03T01:13:54;4.50;94.40
4433;DHT22;2229;48.708;9.706;2023-04-03T01:16:22;4.50;94.30
4433;DHT22;2229;48.708;9.706;2023-04-03T01:18:49;4.60;94.60
4433;DHT22;2229;48.708;9.706;2023-04-03T01:21:34;4.60;94.30
4433;DHT22;2229;48.708;9.706;2023-04-03T01:24:18;4.60;94.20
4433;DHT22;2229;48.708;9.706;2023-04-03T01:26:49;4.60;94.10
4433;DHT22;2229;48.708;9.706;2023-04-03T01:29:16;4.60;94.00
4433;DHT22;2229;48.708;9.706;2023-04-03T01:31:52;4.60;93.90
4433;DHT22;2229;48.708;9.706;2023-04-03T01:34:20;4.60;94.30
4433;DHT22;2229;48.708;9.706;2023-04-03T01:36:47;4.60;94.00
4433;DHT22;2229;48.708;9.706;2023-04-03T01:39:15;4.60;93.90
4433;DHT22;2229;48.708;9.706;2023-04-03T01:41:43;4.70;93.90
4433;DHT22;2229;48.708;9.706;2023-04-03T01:44:21;4.60;93.70
4433;DHT22;2229;48.708;9.706;2023-04-03T01:46:48;4.60;93.60
4433;DHT22;2229;48.708;9.706;2023-04-03T01:49:18;4.60;93.60
4433;DHT22;2229;48.708;9.706;2023-04-03T01:51:47;4.60;93.60
4433;DHT22;2229;48.708;9.706;2023-04-03T01:54:15;4.60;93.60
4433;DHT22;2229;48.708;9.706;2023-04-03T01:56:43;4.60;93.50
4433;DHT22;2229;48.708;9.706;2023-04-03T01:59:10;4.50;93.30
4433;DHT22;2229;48.708;9.706;2023-04-03T02:01:38;4.50;93.10
4433;DHT22;2229;48.708;9.706;2023-04-03T02:04:05;4.40;92.50
4433;DHT22;2229;48.708;9.706;2023-04-03T02:06:34;4.40;92.50
4433;DHT22;2229;48.708;9.706;2023-04-03T02:09:02;4.40;92.40
4433;DHT22;2229;48.708;9.706;2023-04-03T02:11:30;4.30;92.30
4433;DHT22;2229;48.708;9.706;2023-04-03T02:13:57;4.30;92.30
4433;DHT22;2229;48.708;9.706;2023-04-03T02:16:24;4.30;92.30
4433;DHT22;2229;48.708;9.706;2023-04-03T02:18:52;4.30;92.40
4433;DHT22;2229;48.708;9.706;2023-04-03T02:21:19;4.30;92.40
4433;DHT22;2229;48.708;9.706;2023-04-03T02:23:49;4.30;92.80
4433;DHT22;2229;48.708;9.706;2023-04-03T02:26:18;4.30;92.60
4433;DHT22;2229;48.708;9.706;2023-04-03T02:28:46;4.20;92.80
4433;DHT22;2229;48.708;9.706;2023-04-03T02:31:13;4.20;93.00
4433;DHT22;2229;48.708;9.706;2023-04-03T02:33:42;4.20;93.10
4433;DHT22;2229;48.708;9.706;2023-04-03T02:36:13;4.20;93.20
4433;DHT22;2229;48.708;9.706;2023-04-03T02:38:43;4.20;93.30
4433;DHT22;2229;48.708;9.706;2023-04-03T02:41:12;4.20;93.40
4433;DHT22;2229;48.708;9.706;2023-04-03T02:43:40;4.20;93.50
4433;DHT22;2229;48.708;9.706;2023-04-03T02:46:08;4.20;93.60
4433;DHT22;2229;48.708;9.706;2023-04-03T02:48:36;4.20;93.50
4433;DHT22;2229;48.708;9.706;2023-04-03T02:51:04;4.30;93.50
4433;DHT22;2229;48.708;9.706;2023-04-03T02:53:31;4.30;93.50
4433;DHT22;2229;48.708;9.706;2023-04-03T02:56:04;4.30;93.60
4433;DHT22;2229;48.708;9.706;2023-04-03T02:58:32;4.30;93.60
4433;DHT22;2229;48.708;9.706;2023-04-03T03:01:01;4.30;93.60
4433;DHT22;2229;48.708;9.706;2023-04-03T03:03:28;4.30;93.40
4433;DHT22;2229;48.708;9.706;2023-04-03T03:06:03;4.40;93.50
4433;DHT22;2229;48.708;9.706;2023-04-03T03:08:30;4.30;93.40
4433;DHT22;2229;48.708;9.706;2023-04-03T03:10:58;4.40;93.50
4433;DHT22;2229;48.708;9.706;2023-04-03T03:13:26;4.40;93.50
4433;DHT22;2229;48.708;9.706;2023-04-03T03:15:55;4.40;93.50
4433;DHT22;2229;48.708;9.706;2023-04-03T03:18:24;4.40;93.30
4433;DHT22;2229;48.708;9.706;2023-04-03T03:20:53;4.40;93.20
4433;DHT22;2229;48.708;9.706;2023-04-03T03:23:24;4.40;93.20
4433;DHT22;2229;48.708;9.706;2023-04-03T03:25:55;4.40;93.20
4433;DHT22;2229;48.708;9.706;2023-04-03T03:28:22;4.40;93.10
4433;DHT22;2229;48.708;9.706;2023-04-03T03:30:50;4.40;93.00
4433;DHT22;2229;48.708;9.706;2023-04-03T03:33:19;4.40;92.90
4433;DHT22;2229;48.708;9.706;2023-04-03T03:35:46;4.30;92.70
4433;DHT22;2229;48.708;9.706;2023-04-03T03:38:13;4.30;92.70
4433;DHT22;2229;48.708;9.706;2023-04-03T03:40:41;4.30;92.80
4433;DHT22;2229;48.708;9.706;2023-04-03T03:43:08;4.30;92.70
4433;DHT22;2229;48.708;9.706;2023-04-03T03:45:36;4.30;92.70
4433;DHT22;2229;48.708;9.706;2023-04-03T03:48:04;4.30;92.60
4433;DHT22;2229;48.708;9.706;2023-04-03T03:50:32;4.30;92.60
4433;DHT22;2229;48.708;9.706;2023-04-03T03:53:01;4.30;92.70
4433;DHT22;2229;48.708;9.706;2023-04-03T03:55:28;4.40;92.60
4433;DHT22;2229;48.708;9.706;2023-04-03T03:57:57;4.40;92.40
4433;DHT22;2229;48.708;9.706;2023-04-03T04:00:29;4.40;92.40
4433;DHT22;2229;48.708;9.706;2023-04-03T04:02:58;4.40;92.40
4433;DHT22;2229;48.708;9.706;2023-04-03T04:05:33;4.40;92.30
4433;DHT22;2229;48.708;9.706;2023-04-03T04:08:03;4.40;92.20
4433;DHT22;2229;48.708;9.706;2023-04-03T04:10:32;4.40;92.20
4433;DHT22;2229;48.708;9.706;2023-04-03T04:13:02;4.40;92.10
4433;DHT22;2229;48.708;9.706;2023-04-03T04:15:29;4.40;92.10
4433;DHT22;2229;48.708;9.706;2023-04-03T04:17:57;4.40;92.10
4433;DHT22;2229;48.708;9.706;2023-04-03T04:20:27;4.40;92.00
4433;DHT22;2229;48.708;9.706;2023-04-03T04:22:56;4.40;92.00
4433;DHT22;2229;48.708;9.706;2023-04-03T04:25:24;4.40;92.00
4433;DHT22;2229;48.708;9.706;2023-04-03T04:27:52;4.40;92.00
4433;DHT22;2229;48.708;9.706;2023-04-03T04:30:19;4.40;92.00
4433;DHT22;2229;48.708;9.706;2023-04-03T04:32:49;4.40;92.00
4433;DHT22;2229;48.708;9.706;2023-04-03T04:35:17;4.40;91.90
4433;DHT22;2229;48.708;9.706;2023-04-03T04:37:47;4.40;91.70
4433;DHT22;2229;48.708;9.706;2023-04-03T04:40:18;4.40;91.70
4433;DHT22;2229;48.708;9.706;2023-04-03T04:42:46;4.40;91.70
4433;DHT22;2229;48.708;9.706;2023-04-03T04:45:14;4.40;91.60
4433;DHT22;2229;48.708;9.706;2023-04-03T04:47:44;4.40;91.50
4433;DHT22;2229;48.708;9.706;2023-04-03T04:50:11;4.40;91.40
4433;DHT22;2229;48.708;9.706;2023-04-03T04:52:40;4.30;91.40
4433;DHT22;2229;48.708;9.706;2023-04-03T04:55:11;4.40;91.40
4433;DHT22;2229;48.708;9.706;2023-04-03T04:57:41;4.30;91.10
4433;DHT22;2229;48.708;9.706;2023-04-03T05:00:09;4.30;91.00
4433;DHT22;2229;48.708;9.706;2023-04-03T05:02:37;4.30;90.90
4433;DHT22;2229;48.708;9.706;2023-04-03T05:05:06;4.20;90.80
4433;DHT22;2229;48.708;9.706;2023-04-03T05:07:34;4.20;90.80
4433;DHT22;2229;48.708;9.706;2023-04-03T05:10:02;4.10;90.80
4433;DHT22;2229;48.708;9.706;2023-04-03T05:12:31;4.00;90.70
4433;DHT22;2229;48.708;9.706;2023-04-03T05:15:02;3.90;90.60
4433;DHT22;2229;48.708;9.706;2023-04-03T05:17:31;3.90;90.60
4433;DHT22;2229;48.708;9.706;2023-04-03T05:19:59;3.80;90.60
4433;DHT22;2229;48.708;9.706;2023-04-03T05:22:28;3.80;90.60
4433;DHT22;2229;48.708;9.706;2023-04-03T05:25:03;3.80;90.70
4433;DHT22;2229;48.708;9.706;2023-04-03T05:27:31;3.70;90.60
4433;DHT22;2229;48.708;9.706;2023-04-03T05:29:59;3.70;90.60
4433;DHT22;2229;48.708;9.706;2023-04-03T05:32:28;3.70;90.70
4433;DHT22;2229;48.708;9.706;2023-04-03T05:35:19;3.70;90.80
4433;DHT22;2229;48.708;9.706;2023-04-03T05:37:50;3.70;90.80
4433;DHT22;2229;48.708;9.706;2023-04-03T05:40:18;3.70;90.70
4433;DHT22;2229;48.708;9.706;2023-04-03T05:42:47;3.70;90.70
4433;DHT22;2229;48.708;9.706;2023-04-03T05:45:17;3.70;90.70
4433;DHT22;2229;48.708;9.706;2023-04-03T05:47:46;3.70;90.80
4433;DHT22;2229;48.708;9.706;2023-04-03T05:50:13;3.70;90.80
4433;DHT22;2229;48.708;9.706;2023-04-03T05:52:43;3.80;90.80
4433;DHT22;2229;48.708;9.706;2023-04-03T05:55:12;3.80;90.70
4433;DHT22;2229;48.708;9.706;2023-04-03T05:57:39;3.80;90.50
4433;DHT22;2229;48.708;9.706;2023-04-03T06:00:08;3.80;90.50
4433;DHT22;2229;48.708;9.706;2023-04-03T06:02:42;3.80;90.40
4433;DHT22;2229;48.708;9.706;2023-04-03T06:05:17;3.80;90.40
4433;DHT22;2229;48.708;9.706;2023-04-03T06:07:45;3.90;90.60
4433;DHT22;2229;48.708;9.706;2023-04-03T06:10:20;3.90;90.60
4433;DHT22;2229;48.708;9.706;2023-04-03T06:12:49;3.90;90.60
4433;DHT22;2229;48.708;9.706;2023-04-03T06:15:17;4.00;90.50
4433;DHT22;2229;48.708;9.706;2023-04-03T06:17:44;4.00;90.50
4433;DHT22;2229;48.708;9.706;2023-04-03T06:20:12;4.10;90.60
4433;DHT22;2229;48.708;9.706;2023-04-03T06:22:42;4.10;90.60
4433;DHT22;2229;48.708;9.706;2023-04-03T06:25:12;4.10;90.70
4433;DHT22;2229;48.708;9.706;2023-04-03T06:27:40;4.10;90.60
4433;DHT22;2229;48.708;9.706;2023-04-03T06:30:08;4.20;90.60
4433;DHT22;2229;48.708;9.706;2023-04-03T06:32:36;4.20;90.70
4433;DHT22;2229;48.708;9.706;2023-04-03T06:35:05;4.30;90.80
4433;DHT22;2229;48.708;9.706;2023-04-03T06:37:32;4.30;90.80
4433;DHT22;2229;48.708;9.706;2023-04-03T06:40:03;4.30;91.00
4433;DHT22;2229;48.708;9.706;2023-04-03T06:42:31;4.40;91.10
4433;DHT22;2229;48.708;9.706;2023-04-03T06:45:09;4.50;90.90
4433;DHT22;2229;48.708;9.706;2023-04-03T06:47:37;4.50;90.70
4433;DHT22;2229;48.708;9.706;2023-04-03T06:50:10;4.60;90.70
4433;DHT22;2229;48.708;9.706;2023-04-03T06:52:40;4.60;90.60
4433;DHT22;2229;48.708;9.706;2023-04-03T06:55:09;4.70;90.70
4433;DHT22;2229;48.708;9.706;2023-04-03T06:57:37;4.70;90.70
4433;DHT22;2229;48.708;9.706;2023-04-03T07:00:06;4.80;90.70
4433;DHT22;2229;48.708;9.706;2023-04-03T07:02:35;4.80;90.60
4433;DHT22;2229;48.708;9.706;2023-04-03T07:05:03;4.90;90.50
4433;DHT22;2229;48.708;9.706;2023-04-03T07:07:30;5.00;90.50
4433;DHT22;2229;48.708;9.706;2023-04-03T07:09:59;5.10;90.60
4433;DHT22;2229;48.708;9.706;2023-04-03T07:12:28;5.20;90.60
4433;DHT22;2229;48.708;9.706;2023-04-03T07:14:55;5.30;90.30
4433;DHT22;2229;48.708;9.706;2023-04-03T07:17:23;5.60;90.40
4433;DHT22;2229;48.708;9.706;2023-04-03T07:20:04;6.00;90.00
4433;DHT22;2229;48.708;9.706;2023-04-03T07:22:32;6.80;90.10
4433;DHT22;2229;48.708;9.706;2023-04-03T07:24:59;7.40;87.10
4433;DHT22;2229;48.708;9.706;2023-04-03T07:27:28;8.10;86.20
4433;DHT22;2229;48.708;9.706;2023-04-03T07:29:58;8.70;82.90
4433;DHT22;2229;48.708;9.706;2023-04-03T07:32:25;9.00;81.20
4433;DHT22;2229;48.708;9.706;2023-04-03T07:34:53;9.00;78.00
4433;DHT22;2229;48.708;9.706;2023-04-03T07:37:21;8.80;78.10
4433;DHT22;2229;48.708;9.706;2023-04-03T07:39:48;8.50;77.90
4433;DHT22;2229;48.708;9.706;2023-04-03T07:42:15;8.30;78.80
4433;DHT22;2229;48.708;9.706;2023-04-03T07:44:44;8.70;79.90
4433;DHT22;2229;48.708;9.706;2023-04-03T07:47:11;9.80;79.60
4433;DHT22;2229;48.708;9.706;2023-04-03T07:49:40;11.40;75.20
4433;DHT22;2229;48.708;9.706;2023-04-03T07:52:07;12.80;71.80
4433;DHT22;2229;48.708;9.706;2023-04-03T07:54:36;14.10;67.40
4433;DHT22;2229;48.708;9.706;2023-04-03T07:57:03;14.60;62.20
4433;DHT22;2229;48.708;9.706;2023-04-03T07:59:30;15.00;60.70
4433;DHT22;2229;48.708;9.706;2023-04-03T08:01:59;15.70;60.00
4433;DHT22;2229;48.708;9.706;2023-04-03T08:04:27;16.60;58.40
4433;DHT22;2229;48.708;9.706;2023-04-03T08:06:54;16.80;55.80
4433;DHT22;2229;48.708;9.706;2023-04-03T08:09:22;16.90;55.50
4433;DHT22;2229;48.708;9.706;2023-04-03T08:11:49;17.10;54.70
4433;DHT22;2229;48.708;9.706;2023-04-03T08:14:19;17.10;54.10
4433;DHT22;2229;48.708;9.706;2023-04-03T08:16:47;16.70;52.90
4433;DHT22;2229;48.708;9.706;2023-04-03T08:19:19;16.00;53.00
4433;DHT22;2229;48.708;9.706;2023-04-03T08:21:46;14.80;53.80
4433;DHT22;2229;48.708;9.706;2023-04-03T08:24:14;13.80;55.40
4433;DHT22;2229;48.708;9.706;2023-04-03T08:26:41;12.90;56.80
4433;DHT22;2229;48.708;9.706;2023-04-03T08:29:08;12.00;58.00
4433;DHT22;2229;48.708;9.706;2023-04-03T08:31:35;11.40;59.20
4433;DHT22;2229;48.708;9.706;2023-04-03T08:34:03;10.90;61.40
4433;DHT22;2229;48.708;9.706;2023-04-03T08:36:33;10.40;61.90
4433;DHT22;2229;48.708;9.706;2023-04-03T08:39:01;10.10;63.30
4433;DHT22;2229;48.708;9.706;2023-04-03T08:41:36;9.90;65.60
4433;DHT22;2229;48.708;9.706;2023-04-03T08:44:15;9.70;65.60
4433;DHT22;2229;48.708;9.706;2023-04-03T08:46:52;9.50;65.90
4433;DHT22;2229;48.708;9.706;2023-04-03T08:49:26;9.10;65.80
4433;DHT22;2229;48.708;9.706;2023-04-03T08:51:56;8.80;67.20
4433;DHT22;2229;48.708;9.706;2023-04-03T08:54:29;8.60;67.50
4433;DHT22;2229;48.708;9.706;2023-04-03T08:56:58;8.40;68.20
4433;DHT22;2229;48.708;9.706;2023-04-03T08:59:29;8.20;68.90
4433;DHT22;2229;48.708;9.706;2023-04-03T09:01:59;8.00;68.80
4433;DHT22;2229;48.708;9.706;2023-04-03T09:04:32;8.00;69.60
4433;DHT22;2229;48.708;9.706;2023-04-03T09:07:07;7.90;70.10
4433;DHT22;2229;48.708;9.706;2023-04-03T09:09:37;7.80;70.80
4433;DHT22;2229;48.708;9.706;2023-04-03T09:12:15;7.70;70.50
4433;DHT22;2229;48.708;9.706;2023-04-03T09:14:49;7.80;71.70
4433;DHT22;2229;48.708;9.706;2023-04-03T09:17:25;7.80;71.90
4433;DHT22;2229;48.708;9.706;2023-04-03T09:20:06;8.00;71.20
4433;DHT22;2229;48.708;9.706;2023-04-03T09:22:40;8.20;70.90
4433;DHT22;2229;48.708;9.706;2023-04-03T09:25:14;8.40;72.00
4433;DHT22;2229;48.708;9.706;2023-04-03T09:27:44;8.50;71.50
4433;DHT22;2229;48.708;9.706;2023-04-03T09:30:14;8.70;71.00
4433;DHT22;2229;48.708;9.706;2023-04-03T09:32:44;8.90;69.70
4433;DHT22;2229;48.708;9.706;2023-04-03T09:35:19;8.90;68.20
4433;DHT22;2229;48.708;9.706;2023-04-03T09:37:50;8.90;68.50
4433;DHT22;2229;48.708;9.706;2023-04-03T09:40:35;8.90;68.30
4433;DHT22;2229;48.708;9.706;2023-04-03T09:43:26;9.00;67.70
4433;DHT22;2229;48.708;9.706;2023-04-03T09:45:55;9.00;67.30
4433;DHT22;2229;48.708;9.706;2023-04-03T09:48:24;8.90;66.60
4433;DHT22;2229;48.708;9.706;2023-04-03T09:50:59;8.70;65.50
4433;DHT22;2229;48.708;9.706;2023-04-03T09:53:33;8.50;67.20
4433;DHT22;2229;48.708;9.706;2023-04-03T09:56:04;8.30;67.60
4433;DHT22;2229;48.708;9.706;2023-04-03T09:58:34;8.20;67.90
4433;DHT22;2229;48.708;9.706;2023-04-03T10:01:05;7.90;68.60
4433;DHT22;2229;48.708;9.706;2023-04-03T10:03:34;7.80;70.00
4433;DHT22;2229;48.708;9.706;2023-04-03T10:06:03;7.70;69.20
4433;DHT22;2229;48.708;9.706;2023-04-03T10:08:35;7.60;70.30
4433;DHT22;2229;48.708;9.706;2023-04-03T10:11:09;7.50;70.70
4433;DHT22;2229;48.708;9.706;2023-04-03T10:13:50;7.50;70.80
4433;DHT22;2229;48.708;9.706;2023-04-03T10:16:20;7.50;71.20
4433;DHT22;2229;48.708;9.706;2023-04-03T10:19:03;7.50;71.30
4433;DHT22;2229;48.708;9.706;2023-04-03T10:21:41;7.50;70.70
4433;DHT22;2229;48.708;9.706;2023-04-03T10:24:17;7.50;70.60
4433;DHT22;2229;48.708;9.706;2023-04-03T10:26:54;7.40;70.30
4433;DHT22;2229;48.708;9.706;2023-04-03T10:29:34;7.40;70.40
4433;DHT22;2229;48.708;9.706;2023-04-03T10:32:15;7.40;70.90
4433;DHT22;2229;48.708;9.706;2023-04-03T10:34:48;7.40;71.20
4433;DHT22;2229;48.708;9.706;2023-04-03T10:37:34;7.40;70.70
4433;DHT22;2229;48.708;9.706;2023-04-03T10:40:15;7.40;70.40
4433;DHT22;2229;48.708;9.706;2023-04-03T10:42:46;7.40;69.70
4433;DHT22;2229;48.708;9.706;2023-04-03T10:45:23;7.50;70.30
4433;DHT22;2229;48.708;9.706;2023-04-03T10:47:58;7.60;69.50
4433;DHT22;2229;48.708;9.706;2023-04-03T10:50:38;7.60;69.30
4433;DHT22;2229;48.708;9.706;2023-04-03T10:53:15;7.50;67.90
4433;DHT22;2229;48.708;9.706;2023-04-03T10:55:50;7.50;67.50
4433;DHT22;2229;48.708;9.706;2023-04-03T10:58:25;7.50;67.80
4433;DHT22;2229;48.708;9.706;2023-04-03T11:01:02;7.30;66.50
4433;DHT22;2229;48.708;9.706;2023-04-03T11:03:35;7.30;67.40
4433;DHT22;2229;48.708;9.706;2023-04-03T11:06:15;7.20;66.30
4433;DHT22;2229;48.708;9.706;2023-04-03T11:08:46;7.20;67.00
4433;DHT22;2229;48.708;9.706;2023-04-03T11:11:25;7.30;67.40
4433;DHT22;2229;48.708;9.706;2023-04-03T11:13:58;7.30;65.80
4433;DHT22;2229;48.708;9.706;2023-04-03T11:16:30;7.40;65.00
4433;DHT22;2229;48.708;9.706;2023-04-03T11:19:02;7.40;65.40
4433;DHT22;2229;48.708;9.706;2023-04-03T11:21:39;7.60;66.20
4433;DHT22;2229;48.708;9.706;2023-04-03T11:24:20;7.70;65.90
4433;DHT22;2229;48.708;9.706;2023-04-03T11:26:52;7.80;65.60
4433;DHT22;2229;48.708;9.706;2023-04-03T11:29:23;7.80;62.80
4433;DHT22;2229;48.708;9.706;2023-04-03T11:32:06;7.80;62.30
4433;DHT22;2229;48.708;9.706;2023-04-03T11:34:39;7.70;63.10
4433;DHT22;2229;48.708;9.706;2023-04-03T11:37:17;7.70;64.10
4433;DHT22;2229;48.708;9.706;2023-04-03T11:39:53;7.70;62.40
4433;DHT22;2229;48.708;9.706;2023-04-03T11:42:38;7.60;60.90
4433;DHT22;2229;48.708;9.706;2023-04-03T11:45:34;7.50;61.80
4433;DHT22;2229;48.708;9.706;2023-04-03T11:48:04;7.50;62.30
4433;DHT22;2229;48.708;9.706;2023-04-03T11:50:41;7.50;61.90
4433;DHT22;2229;48.708;9.706;2023-04-03T11:53:34;7.60;62.90
4433;DHT22;2229;48.708;9.706;2023-04-03T11:56:29;7.80;62.10
4433;DHT22;2229;48.708;9.706;2023-04-03T11:59:22;8.10;62.10
4433;DHT22;2229;48.708;9.706;2023-04-03T12:01:51;8.50;62.70
4433;DHT22;2229;48.708;9.706;2023-04-03T12:04:21;8.70;61.80
4433;DHT22;2229;48.708;9.706;2023-04-03T12:07:00;8.80;61.60
4433;DHT22;2229;48.708;9.706;2023-04-03T12:12:34;8.70;60.30
4433;DHT22;2229;48.708;9.706;2023-04-03T12:24:49;8.20;60.20
4433;DHT22;2229;48.708;9.706;2023-04-03T12:27:24;8.20;60.90
4433;DHT22;2229;48.708;9.706;2023-04-03T12:30:07;8.20;61.50
4433;DHT22;2229;48.708;9.706;2023-04-03T12:32:56;8.30;61.90
4433;DHT22;2229;48.708;9.706;2023-04-03T12:35:31;8.40;61.60
4433;DHT22;2229;48.708;9.706;2023-04-03T12:38:19;8.50;61.50
4433;DHT22;2229;48.708;9.706;2023-04-03T12:40:57;8.70;63.20
4433;DHT22;2229;48.708;9.706;2023-04-03T12:43:40;9.00;62.10
4433;DHT22;2229;48.708;9.706;2023-04-03T12:46:14;9.10;62.10
4433;DHT22;2229;48.708;9.706;2023-04-03T12:48:49;9.10;60.20
4433;DHT22;2229;48.708;9.706;2023-04-03T12:51:30;9.10;60.20
4433;DHT22;2229;48.708;9.706;2023-04-03T12:54:03;9.10;61.00
4433;DHT22;2229;48.708;9.706;2023-04-03T12:56:33;9.30;61.60
4433;DHT22;2229;48.708;9.706;2023-04-03T12:59:15;9.50;61.80
4433;DHT22;2229;48.708;9.706;2023-04-03T13:01:43;9.50;59.10
4433;DHT22;2229;48.708;9.706;2023-04-03T13:04:12;9.50;58.20
4433;DHT22;2229;48.708;9.706;2023-04-03T13:06:41;9.40;58.80
4433;DHT22;2229;48.708;9.706;2023-04-03T13:09:19;9.40;58.90
4433;DHT22;2229;48.708;9.706;2023-04-03T13:12:11;9.50;58.80
4433;DHT22;2229;48.708;9.706;2023-04-03T13:14:51;9.50;58.50
4433;DHT22;2229;48.708;9.706;2023-04-03T13:17:23;9.50;58.90
4433;DHT22;2229;48.708;9.706;2023-04-03T13:19:50;9.50;59.20
4433;DHT22;2229;48.708;9.706;2023-04-03T13:22:28;9.50;58.50
4433;DHT22;2229;48.708;9.706;2023-04-03T13:24:59;9.50;58.40
4433;DHT22;2229;48.708;9.706;2023-04-03T13:27:30;9.50;58.90
4433;DHT22;2229;48.708;9.706;2023-04-03T13:30:00;9.50;58.00
4433;DHT22;2229;48.708;9.706;2023-04-03T13:32:31;9.50;58.00
4433;DHT22;2229;48.708;9.706;2023-04-03T13:34:59;9.50;57.60
4433;DHT22;2229;48.708;9.706;2023-04-03T13:37:32;9.40;56.90
4433;DHT22;2229;48.708;9.706;2023-04-03T13:40:10;9.50;57.90
4433;DHT22;2229;48.708;9.706;2023-04-03T13:42:41;9.70;58.40
4433;DHT22;2229;48.708;9.706;2023-04-03T13:45:16;9.90;58.30
4433;DHT22;2229;48.708;9.706;2023-04-03T13:47:46;10.00;57.00
4433;DHT22;2229;48.708;9.706;2023-04-03T13:50:16;9.90;57.10
4433;DHT22;2229;48.708;9.706;2023-04-03T13:52:52;9.60;56.90
4433;DHT22;2229;48.708;9.706;2023-04-03T13:55:23;9.40;56.80
4433;DHT22;2229;48.708;9.706;2023-04-03T13:57:57;9.20;56.80
4433;DHT22;2229;48.708;9.706;2023-04-03T14:00:33;9.00;57.30
4433;DHT22;2229;48.708;9.706;2023-04-03T14:03:02;8.80;57.50
4433;DHT22;2229;48.708;9.706;2023-04-03T14:05:42;8.70;57.80
4433;DHT22;2229;48.708;9.706;2023-04-03T14:08:11;8.60;57.60
4433;DHT22;2229;48.708;9.706;2023-04-03T14:10:39;8.60;57.80
4433;DHT22;2229;48.708;9.706;2023-04-03T14:13:11;8.50;58.10
4433;DHT22;2229;48.708;9.706;2023-04-03T14:15:40;8.50;58.10
4433;DHT22;2229;48.708;9.706;2023-04-03T14:18:10;8.50;57.60
4433;DHT22;2229;48.708;9.706;2023-04-03T14:20:38;8.50;58.00
4433;DHT22;2229;48.708;9.706;2023-04-03T14:23:06;8.50;57.80
4433;DHT22;2229;48.708;9.706;2023-04-03T14:25:34;8.60;58.60
4433;DHT22;2229;48.708;9.706;2023-04-03T14:28:15;8.70;58.00
4433;DHT22;2229;48.708;9.706;2023-04-03T14:30:46;8.70;57.90
4433;DHT22;2229;48.708;9.706;2023-04-03T14:33:17;8.80;57.90
4433;DHT22;2229;48.708;9.706;2023-04-03T14:35:45;8.70;57.10
4433;DHT22;2229;48.708;9.706;2023-04-03T14:38:22;8.70;57.50
4433;DHT22;2229;48.708;9.706;2023-04-03T14:40:50;8.70;58.60
4433;DHT22;2229;48.708;9.706;2023-04-03T14:43:19;8.90;57.50
4433;DHT22;2229;48.708;9.706;2023-04-03T14:45:48;9.00;57.10
4433;DHT22;2229;48.708;9.706;2023-04-03T14:48:19;9.10;57.60
4433;DHT22;2229;48.708;9.706;2023-04-03T14:50:47;9.10;56.90
4433;DHT22;2229;48.708;9.706;2023-04-03T14:53:19;9.00;56.30
4433;DHT22;2229;48.708;9.706;2023-04-03T14:55:49;8.90;56.40
4433;DHT22;2229;48.708;9.706;2023-04-03T14:58:19;8.90;57.30
4433;DHT22;2229;48.708;9.706;2023-04-03T15:00:47;8.90;57.10
4433;DHT22;2229;48.708;9.706;2023-04-03T15:03:15;8.90;56.30
4433;DHT22;2229;48.708;9.706;2023-04-03T15:05:44;8.80;55.70
4433;DHT22;2229;48.708;9.706;2023-04-03T15:08:19;8.70;55.60
4433;DHT22;2229;48.708;9.706;2023-04-03T15:10:48;8.70;55.80
4433;DHT22;2229;48.708;9.706;2023-04-03T15:13:15;8.70;55.20
4433;DHT22;2229;48.708;9.706;2023-04-03T15:15:44;8.70;56.10
4433;DHT22;2229;48.708;9.706;2023-04-03T15:18:17;8.80;56.00
4433;DHT22;2229;48.708;9.706;2023-04-03T15:20:48;8.80;56.20
4433;DHT22;2229;48.708;9.706;2023-04-03T15:23:17;8.90;55.50
4433;DHT22;2229;48.708;9.706;2023-04-03T15:25:46;8.80;55.30
4433;DHT22;2229;48.708;9.706;2023-04-03T15:28:18;8.70;55.50
4433;DHT22;2229;48.708;9.706;2023-04-03T15:30:51;8.60;56.00
4433;DHT22;2229;48.708;9.706;2023-04-03T15:33:19;8.40;56.10
4433;DHT22;2229;48.708;9.706;2023-04-03T15:35:46;8.30;55.70
4433;DHT22;2229;48.708;9.706;2023-04-03T15:38:14;8.10;56.10
4433;DHT22;2229;48.708;9.706;2023-04-03T15:40:42;8.00;56.60
4433;DHT22;2229;48.708;9.706;2023-04-03T15:43:09;8.00;57.30
4433;DHT22;2229;48.708;9.706;2023-04-03T15:45:37;8.10;57.90
4433;DHT22;2229;48.708;9.706;2023-04-03T15:48:07;8.30;58.10
4433;DHT22;2229;48.708;9.706;2023-04-03T15:50:37;8.50;58.00
4433;DHT22;2229;48.708;9.706;2023-04-03T15:53:06;8.70;57.80
4433;DHT22;2229;48.708;9.706;2023-04-03T15:55:35;8.80;57.00
4433;DHT22;2229;48.708;9.706;2023-04-03T15:58:03;8.90;55.30
4433;DHT22;2229;48.708;9.706;2023-04-03T16:00:31;8.90;55.00
4433;DHT22;2229;48.708;9.706;2023-04-03T16:03:02;8.70;54.80
4433;DHT22;2229;48.708;9.706;2023-04-03T16:05:36;8.60;55.40
4433;DHT22;2229;48.708;9.706;2023-04-03T16:08:05;8.40;55.00
4433;DHT22;2229;48.708;9.706;2023-04-03T16:10:33;8.30;55.10
4433;DHT22;2229;48.708;9.706;2023-04-03T16:13:01;8.10;56.10
4433;DHT22;2229;48.708;9.706;2023-04-03T16:15:29;8.00;56.70
4433;DHT22;2229;48.708;9.706;2023-04-03T16:18:01;8.00;57.00
4433;DHT22;2229;48.708;9.706;2023-04-03T16:20:29;7.90;56.80
4433;DHT22;2229;48.708;9.706;2023-04-03T16:22:59;7.80;56.60
4433;DHT22;2229;48.708;9.706;2023-04-03T16:25:27;7.70;56.50
4433;DHT22;2229;48.708;9.706;2023-04-03T16:27:56;7.60;56.90
4433;DHT22;2229;48.708;9.706;2023-04-03T16:30:24;7.60;56.50
4433;DHT22;2229;48.708;9.706;2023-04-03T16:32:51;7.60;56.60
4433;DHT22;2229;48.708;9.706;2023-04-03T16:35:19;7.60;55.50
4433;DHT22;2229;48.708;9.706;2023-04-03T16:37:46;7.70;55.90
4433;DHT22;2229;48.708;9.706;2023-04-03T16:40:15;7.90;56.20
4433;DHT22;2229;48.708;9.706;2023-04-03T16:42:42;7.90;55.90
4433;DHT22;2229;48.708;9.706;2023-04-03T16:45:10;7.90;56.20
4433;DHT22;2229;48.708;9.706;2023-04-03T16:47:38;7.90;56.20
4433;DHT22;2229;48.708;9.706;2023-04-03T16:50:09;7.90;56.10
4433;DHT22;2229;48.708;9.706;2023-04-03T16:52:36;7.90;56.70
4433;DHT22;2229;48.708;9.706;2023-04-03T16:55:04;7.80;56.70